IMP707 LPPS-LPPT
Flight info
| Callsign | IMP707 |
|---|---|
| Flight time | N/A |
| Altitude | 35000 |
| Route | DEGUN UZ225 NAVIX DCT BUSEN |
| Aircraft | MD82/M-VGDW/C |
Departure
| Time | 2026-05-05 19:44 |
|---|---|
| Airport | Porto Santo Airport (LPPS) |
Arrival
| Time | N/A |
|---|---|
| Airport | Lisbon Humberto Delgado Airport (LPPT) |
| Time | Latitude | Longitude | Altitude | Speed | Heading |
|---|---|---|---|---|---|
| 2026-05-05 19:30 | 33.07258 | -16.34693 | 269 ft | 0 kts | 132° |
| 2026-05-05 19:38 | 33.07258 | -16.34692 | 269 ft | 0 kts | 132° |
| 2026-05-05 19:39 | 33.07258 | -16.34693 | 269 ft | 0 kts | 132° |
| 2026-05-05 19:39 | 33.07254 | -16.34692 | 269 ft | 1 kts | 167° |
| 2026-05-05 19:40 | 33.07222 | -16.34717 | 269 ft | 11 kts | 207° |
| 2026-05-05 19:40 | 33.07106 | -16.34719 | 269 ft | 24 kts | 177° |
| 2026-05-05 19:40 | 33.06970 | -16.34778 | 269 ft | 23 kts | 256° |
| 2026-05-05 19:40 | 33.06941 | -16.34963 | 269 ft | 19 kts | 217° |
| 2026-05-05 19:41 | 33.06811 | -16.34972 | 269 ft | 22 kts | 178° |
| 2026-05-05 19:41 | 33.06636 | -16.34965 | 269 ft | 28 kts | 178° |
| 2026-05-05 19:41 | 33.06418 | -16.34957 | 269 ft | 34 kts | 178° |
| 2026-05-05 19:41 | 33.06196 | -16.34945 | 269 ft | 35 kts | 176° |
| 2026-05-05 19:42 | 33.06029 | -16.34934 | 269 ft | 9 kts | 155° |
| 2026-05-05 19:42 | 33.06000 | -16.34928 | 269 ft | 1 kts | 232° |
| 2026-05-05 19:42 | 33.06000 | -16.34935 | 269 ft | 1 kts | 271° |
| 2026-05-05 19:42 | 33.06005 | -16.34940 | 269 ft | 1 kts | 316° |
| 2026-05-05 19:43 | 33.06033 | -16.34942 | 269 ft | 10 kts | 357° |
| 2026-05-05 19:43 | 33.06249 | -16.34948 | 269 ft | 64 kts | 360° |
| 2026-05-05 19:43 | 33.06926 | -16.34977 | 269 ft | 129 kts | 359° |
| 2026-05-05 19:43 | 33.08001 | -16.35046 | 394 ft | 170 kts | 1° |
| 2026-05-05 19:44 | 33.09225 | -16.35183 | 1006 ft | 185 kts | 359° |
| 2026-05-05 19:44 | 33.10593 | -16.35297 | 1538 ft | 207 kts | 3° |
| 2026-05-05 19:44 | 33.12053 | -16.35290 | 2314 ft | 211 kts | 5° |
| 2026-05-05 19:44 | 33.13528 | -16.35282 | 2966 ft | 215 kts | 1° |
| 2026-05-05 19:45 | 33.15036 | -16.35111 | 3412 ft | 225 kts | 19° |
| 2026-05-05 19:45 | 33.16350 | -16.34068 | 3815 ft | 234 kts | 48° |
| 2026-05-05 19:45 | 33.17262 | -16.32437 | 4307 ft | 240 kts | 62° |
| 2026-05-05 19:45 | 33.17979 | -16.30621 | 4842 ft | 244 kts | 66° |
| 2026-05-05 19:46 | 33.18631 | -16.28720 | 5387 ft | 250 kts | 68° |
| 2026-05-05 19:46 | 33.19282 | -16.26766 | 5913 ft | 260 kts | 69° |
| 2026-05-05 19:46 | 33.19956 | -16.24744 | 6505 ft | 264 kts | 68° |
| 2026-05-05 19:46 | 33.20661 | -16.22669 | 7108 ft | 269 kts | 67° |
| 2026-05-05 19:47 | 33.21380 | -16.20599 | 7697 ft | 273 kts | 67° |
| 2026-05-05 19:47 | 33.22122 | -16.18515 | 8343 ft | 274 kts | 66° |
| 2026-05-05 19:47 | 33.22883 | -16.16409 | 8885 ft | 279 kts | 66° |
| 2026-05-05 19:47 | 33.23663 | -16.14292 | 9503 ft | 280 kts | 65° |
| 2026-05-05 19:48 | 33.24454 | -16.12155 | 10123 ft | 282 kts | 65° |
| 2026-05-05 19:48 | 33.25276 | -16.09974 | 10470 ft | 296 kts | 64° |
| 2026-05-05 19:48 | 33.26150 | -16.07677 | 10694 ft | 312 kts | 64° |
| 2026-05-05 19:48 | 33.27061 | -16.05286 | 11055 ft | 320 kts | 64° |
| 2026-05-05 19:49 | 33.27984 | -16.02855 | 11602 ft | 323 kts | 64° |
| 2026-05-05 19:49 | 33.28610 | -16.01195 | 11929 ft | 326 kts | 64° |
| 2026-05-05 19:49 | 33.29842 | -15.97909 | 12614 ft | 330 kts | 64° |
| 2026-05-05 19:49 | 33.30792 | -15.95404 | 13104 ft | 333 kts | 63° |
| 2026-05-05 19:50 | 33.31766 | -15.92846 | 13608 ft | 336 kts | 63° |
| 2026-05-05 19:50 | 33.32735 | -15.90292 | 14083 ft | 339 kts | 63° |
| 2026-05-05 19:50 | 33.33709 | -15.87709 | 14468 ft | 346 kts | 64° |
| 2026-05-05 19:50 | 33.34691 | -15.85071 | 14898 ft | 349 kts | 64° |
| 2026-05-05 19:51 | 33.35678 | -15.82409 | 15373 ft | 352 kts | 64° |
| 2026-05-05 19:51 | 33.36674 | -15.79727 | 15835 ft | 355 kts | 64° |
| 2026-05-05 19:51 | 33.37672 | -15.77028 | 16306 ft | 357 kts | 64° |
| 2026-05-05 19:51 | 33.38674 | -15.74302 | 16752 ft | 360 kts | 64° |
| 2026-05-05 19:52 | 33.39735 | -15.71585 | 17181 ft | 361 kts | 57° |
| 2026-05-05 19:52 | 33.41328 | -15.69320 | 17610 ft | 356 kts | 36° |
| 2026-05-05 19:52 | 33.43451 | -15.67879 | 18045 ft | 349 kts | 15° |
| 2026-05-05 19:52 | 33.45788 | -15.67272 | 18504 ft | 344 kts | 1° |
| 2026-05-05 19:53 | 33.48163 | -15.67280 | 18939 ft | 341 kts | 351° |
| 2026-05-05 19:53 | 33.50532 | -15.67688 | 19130 ft | 349 kts | 345° |
| 2026-05-05 19:53 | 33.52142 | -15.68111 | 19257 ft | 354 kts | 342° |
| 2026-05-05 19:53 | 33.54532 | -15.68848 | 19623 ft | 357 kts | 340° |
| 2026-05-05 19:54 | 33.56925 | -15.69645 | 20028 ft | 359 kts | 340° |
| 2026-05-05 19:54 | 33.59334 | -15.70447 | 20440 ft | 361 kts | 340° |
| 2026-05-05 19:54 | 33.61733 | -15.71211 | 21110 ft | 353 kts | 341° |
| 2026-05-05 19:54 | 33.64112 | -15.71924 | 21570 ft | 356 kts | 342° |
| 2026-05-05 19:55 | 33.66558 | -15.72622 | 21683 ft | 367 kts | 343° |
| 2026-05-05 19:55 | 33.69078 | -15.73303 | 21883 ft | 376 kts | 344° |
| 2026-05-05 19:55 | 33.71695 | -15.73991 | 22009 ft | 387 kts | 345° |
| 2026-05-05 19:55 | 33.74358 | -15.74681 | 22127 ft | 397 kts | 347° |
| 2026-05-05 19:56 | 33.77081 | -15.75381 | 22400 ft | 400 kts | 353° |
| 2026-05-05 19:56 | 33.79729 | -15.76076 | 23445 ft | 377 kts | 352° |
| 2026-05-05 19:56 | 33.82195 | -15.76741 | 24654 ft | 356 kts | 352° |
| 2026-05-05 19:56 | 33.84618 | -15.77384 | 24956 ft | 361 kts | 350° |
| 2026-05-05 19:57 | 33.87116 | -15.78028 | 25012 ft | 373 kts | 350° |
| 2026-05-05 19:57 | 33.89691 | -15.78683 | 25085 ft | 384 kts | 350° |
| 2026-05-05 19:57 | 33.92333 | -15.79373 | 25171 ft | 395 kts | 349° |
| 2026-05-05 19:57 | 33.95049 | -15.80094 | 25266 ft | 405 kts | 349° |
| 2026-05-05 19:58 | 33.97828 | -15.80836 | 25366 ft | 414 kts | 349° |
| 2026-05-05 19:58 | 34.00669 | -15.81594 | 25466 ft | 423 kts | 349° |
| 2026-05-05 19:58 | 34.03559 | -15.82384 | 25563 ft | 431 kts | 349° |
| 2026-05-05 19:58 | 34.06496 | -15.83206 | 25742 ft | 436 kts | 348° |
| 2026-05-05 19:59 | 34.09459 | -15.84025 | 26017 ft | 438 kts | 349° |
| 2026-05-05 19:59 | 34.12469 | -15.84844 | 26276 ft | 441 kts | 349° |
| 2026-05-05 19:59 | 34.15464 | -15.85652 | 26543 ft | 442 kts | 349° |
| 2026-05-05 19:59 | 34.18471 | -15.86462 | 26779 ft | 445 kts | 349° |
| 2026-05-05 20:00 | 34.21493 | -15.87276 | 27041 ft | 446 kts | 349° |
| 2026-05-05 20:00 | 34.24518 | -15.88110 | 27255 ft | 449 kts | 349° |
| 2026-05-05 20:00 | 34.27563 | -15.88958 | 27528 ft | 450 kts | 349° |
| 2026-05-05 20:00 | 34.30616 | -15.89795 | 27736 ft | 452 kts | 349° |
| 2026-05-05 20:01 | 34.33690 | -15.90632 | 27976 ft | 453 kts | 349° |
| 2026-05-05 20:01 | 34.36764 | -15.91467 | 28174 ft | 456 kts | 349° |
| 2026-05-05 20:01 | 34.39864 | -15.92308 | 28394 ft | 457 kts | 349° |
| 2026-05-05 20:01 | 34.42970 | -15.93147 | 28611 ft | 459 kts | 349° |
| 2026-05-05 20:02 | 34.46093 | -15.93996 | 28793 ft | 461 kts | 349° |
| 2026-05-05 20:02 | 34.49252 | -15.94862 | 29036 ft | 462 kts | 349° |
| 2026-05-05 20:02 | 34.52395 | -15.95722 | 29178 ft | 464 kts | 349° |
| 2026-05-05 20:02 | 34.55543 | -15.96584 | 29420 ft | 465 kts | 349° |
| 2026-05-05 20:03 | 34.58699 | -15.97469 | 29556 ft | 468 kts | 348° |
| 2026-05-05 20:03 | 34.61865 | -15.98368 | 29762 ft | 469 kts | 349° |
| 2026-05-05 20:03 | 34.65040 | -15.99253 | 29976 ft | 469 kts | 349° |
| 2026-05-05 20:03 | 34.68234 | -16.00132 | 30087 ft | 472 kts | 349° |
| 2026-05-05 20:04 | 34.71429 | -16.01007 | 30314 ft | 472 kts | 349° |
| 2026-05-05 20:04 | 34.74637 | -16.01883 | 30460 ft | 474 kts | 349° |
| 2026-05-05 20:04 | 34.77864 | -16.02764 | 30593 ft | 476 kts | 349° |
| 2026-05-05 20:04 | 34.81085 | -16.03646 | 30811 ft | 476 kts | 349° |
| 2026-05-05 20:05 | 34.84316 | -16.04536 | 30959 ft | 478 kts | 349° |
| 2026-05-05 20:05 | 34.87603 | -16.05442 | 31077 ft | 480 kts | 349° |
| 2026-05-05 20:05 | 34.90856 | -16.06338 | 31246 ft | 480 kts | 348° |
| 2026-05-05 20:05 | 34.94112 | -16.07247 | 31389 ft | 481 kts | 348° |
| 2026-05-05 20:06 | 34.97371 | -16.08152 | 31520 ft | 482 kts | 348° |
| 2026-05-05 20:06 | 35.00632 | -16.09065 | 31681 ft | 482 kts | 347° |
| 2026-05-05 20:06 | 35.03906 | -16.09987 | 31773 ft | 484 kts | 347° |
| 2026-05-05 20:06 | 35.07180 | -16.10904 | 31972 ft | 483 kts | 347° |
| 2026-05-05 20:07 | 35.10451 | -16.11808 | 32049 ft | 485 kts | 347° |
| 2026-05-05 20:07 | 35.13734 | -16.12714 | 32235 ft | 483 kts | 346° |
| 2026-05-05 20:07 | 35.17011 | -16.13628 | 32320 ft | 485 kts | 346° |
| 2026-05-05 20:07 | 35.20291 | -16.14538 | 32444 ft | 484 kts | 346° |
| 2026-05-05 20:08 | 35.23570 | -16.15442 | 32602 ft | 484 kts | 346° |
| 2026-05-05 20:08 | 35.30135 | -16.17278 | 32835 ft | 483 kts | 345° |
| 2026-05-05 20:09 | 35.36732 | -16.19115 | 33005 ft | 484 kts | 345° |
| 2026-05-05 20:09 | 35.40010 | -16.20019 | 33159 ft | 483 kts | 345° |
| 2026-05-05 20:09 | 35.43308 | -16.20815 | 33200 ft | 486 kts | 352° |
| 2026-05-05 20:09 | 35.46682 | -16.20689 | 33254 ft | 489 kts | 9° |
| 2026-05-05 20:10 | 35.49918 | -16.19476 | 33337 ft | 487 kts | 26° |
| 2026-05-05 20:10 | 35.55609 | -16.15065 | 33449 ft | 484 kts | 41° |
| 2026-05-05 20:11 | 35.60252 | -16.09185 | 33548 ft | 479 kts | 57° |
| 2026-05-05 20:11 | 35.63843 | -16.02340 | 33652 ft | 475 kts | 64° |
| 2026-05-05 20:12 | 35.67089 | -15.95210 | 33723 ft | 477 kts | 65° |
| 2026-05-05 20:12 | 35.70428 | -15.88146 | 33802 ft | 479 kts | 62° |
| 2026-05-05 20:13 | 35.73981 | -15.81200 | 33854 ft | 482 kts | 60° |
| 2026-05-05 20:13 | 35.77672 | -15.74326 | 33971 ft | 482 kts | 59° |
| 2026-05-05 20:14 | 35.81363 | -15.67436 | 34014 ft | 483 kts | 60° |
| 2026-05-05 20:14 | 35.85016 | -15.60496 | 34092 ft | 484 kts | 60° |
| 2026-05-05 20:15 | 35.88635 | -15.53502 | 34136 ft | 485 kts | 60° |
| 2026-05-05 20:15 | 35.92271 | -15.46451 | 34236 ft | 485 kts | 60° |
| 2026-05-05 20:16 | 35.95882 | -15.39427 | 34279 ft | 486 kts | 60° |
| 2026-05-05 20:16 | 35.99486 | -15.32386 | 34323 ft | 487 kts | 60° |
| 2026-05-05 20:17 | 36.03095 | -15.25318 | 34368 ft | 487 kts | 60° |
| 2026-05-05 20:17 | 36.06744 | -15.18274 | 34414 ft | 488 kts | 60° |
| 2026-05-05 20:18 | 36.10366 | -15.11196 | 34487 ft | 488 kts | 60° |
| 2026-05-05 20:18 | 36.14019 | -15.04077 | 34529 ft | 488 kts | 58° |
| 2026-05-05 20:19 | 36.17645 | -14.96991 | 34777 ft | 482 kts | 56° |
| 2026-05-05 20:19 | 36.19415 | -14.93522 | 35068 ft | 476 kts | 56° |
| 2026-05-05 20:19 | 36.21181 | -14.90063 | 35094 ft | 476 kts | 56° |
| 2026-05-05 20:20 | 36.24694 | -14.83127 | 35097 ft | 477 kts | 56° |
| 2026-05-05 20:20 | 36.28195 | -14.76142 | 35094 ft | 478 kts | 57° |
| 2026-05-05 20:21 | 36.31713 | -14.69156 | 35077 ft | 479 kts | 56° |
| 2026-05-05 20:21 | 36.35258 | -14.62168 | 35075 ft | 479 kts | 56° |
| 2026-05-05 20:22 | 36.38834 | -14.55137 | 35075 ft | 480 kts | 56° |
| 2026-05-05 20:22 | 36.42359 | -14.48110 | 35075 ft | 480 kts | 56° |
| 2026-05-05 20:23 | 36.45881 | -14.41082 | 35075 ft | 480 kts | 56° |
| 2026-05-05 20:23 | 36.49388 | -14.34022 | 35075 ft | 481 kts | 56° |
| 2026-05-05 20:24 | 36.52919 | -14.26981 | 35075 ft | 481 kts | 56° |
| 2026-05-05 20:24 | 36.56439 | -14.19925 | 35075 ft | 481 kts | 56° |
| 2026-05-05 20:25 | 36.59973 | -14.12811 | 35075 ft | 481 kts | 56° |
| 2026-05-05 20:25 | 36.63506 | -14.05749 | 35075 ft | 481 kts | 56° |
| 2026-05-05 20:26 | 36.66993 | -13.98656 | 35075 ft | 481 kts | 56° |
| 2026-05-05 20:26 | 36.70505 | -13.91575 | 35075 ft | 481 kts | 56° |
| 2026-05-05 20:27 | 36.73985 | -13.84473 | 35075 ft | 481 kts | 56° |
| 2026-05-05 20:27 | 36.77496 | -13.77392 | 35075 ft | 481 kts | 56° |
| 2026-05-05 20:28 | 36.81006 | -13.70232 | 35075 ft | 481 kts | 57° |
| 2026-05-05 20:28 | 36.84506 | -13.63128 | 35075 ft | 481 kts | 56° |
| 2026-05-05 20:29 | 36.87999 | -13.56025 | 35075 ft | 481 kts | 57° |